Terminal Aerodrome Forecast
Issued by NWS

Home | Current Version | Previous Version | Graphics & Text | Print | Product List | Glossary On
Versions: 1 2 3 4 5 6 7 8 9 10 11 12 13 14
663
FTUS43 KICT 101727
TAFCNU
TAF
KCNU 101727Z 1018/1118 30012KT P6SM SKC
     FM110000 VRB05KT P6SM SKC
     FM111300 24010KT P6SM SKC
     FM111600 28015G22KT P6SM SKC=

USA.gov is the U.S. government's official web portal to all federal, state and local government web resources and services.